createdAt,value
2018-02-14T00:01:22.199Z,93.30
2018-02-14T00:03:50.164Z,93.30
2018-02-14T00:06:18.042Z,93.40
2018-02-14T00:08:45.845Z,93.30
2018-02-14T00:11:13.612Z,93.40
2018-02-14T00:13:41.531Z,93.10
2018-02-14T00:16:09.321Z,93.10
2018-02-14T00:18:38.075Z,93.50
2018-02-14T00:21:05.953Z,93.50
2018-02-14T00:23:33.819Z,93.60
2018-02-14T00:26:01.592Z,93.60
2018-02-14T00:28:29.497Z,93.70
2018-02-14T00:30:57.296Z,94.10
2018-02-14T00:33:25.129Z,94.20
2018-02-14T00:35:53.002Z,94.40
2018-02-14T00:38:20.812Z,94.50
2018-02-14T00:40:48.625Z,94.50
2018-02-14T00:43:16.520Z,94.70
2018-02-14T00:45:44.366Z,94.90
2018-02-14T00:48:12.212Z,95.00
2018-02-14T00:50:40.872Z,95.30
2018-02-14T00:53:08.638Z,95.30
2018-02-14T00:55:36.448Z,95.60
2018-02-14T00:58:04.300Z,96.00
2018-02-14T01:00:32.152Z,96.30
2018-02-14T01:03:00.742Z,96.60
2018-02-14T01:05:29.983Z,96.50
2018-02-14T01:07:57.971Z,96.50
2018-02-14T01:10:26.021Z,96.50
2018-02-14T01:12:54.011Z,96.60
2018-02-14T01:15:22.154Z,96.80
2018-02-14T01:17:50.152Z,96.90
2018-02-14T01:20:18.131Z,96.70
2018-02-14T01:22:46.194Z,96.50
2018-02-14T01:25:14.061Z,96.40
2018-02-14T01:27:41.996Z,96.40
2018-02-14T01:30:10.068Z,96.30
2018-02-14T01:32:37.981Z,96.20
2018-02-14T01:35:05.937Z,96.20
2018-02-14T01:37:33.908Z,96.00
2018-02-14T01:40:01.776Z,95.50
2018-02-14T01:42:29.745Z,94.80
2018-02-14T01:44:57.907Z,94.60
2018-02-14T01:47:25.898Z,94.90
2018-02-14T01:49:53.865Z,94.70
2018-02-14T01:52:21.827Z,94.80
2018-02-14T01:54:49.803Z,94.80
2018-02-14T01:57:18.057Z,94.90
2018-02-14T01:59:46.108Z,95.00
2018-02-14T02:02:14.113Z,95.20
2018-02-14T02:04:42.490Z,95.30
2018-02-14T02:07:10.459Z,95.90
2018-02-14T02:09:38.324Z,96.30
2018-02-14T02:12:06.243Z,96.50
2018-02-14T02:14:34.253Z,96.70
2018-02-14T02:17:02.132Z,97.00
2018-02-14T02:19:30.101Z,97.20
2018-02-14T02:21:57.965Z,97.20
2018-02-14T02:24:25.992Z,97.30
2018-02-14T02:26:53.977Z,97.60
2018-02-14T02:29:21.885Z,97.10
2018-02-14T02:31:49.945Z,96.90
2018-02-14T02:34:18.019Z,96.80
2018-02-14T02:36:45.887Z,96.90
2018-02-14T02:39:25.724Z,96.90
2018-02-14T02:41:53.553Z,96.80
2018-02-14T02:44:21.338Z,96.70
2018-02-14T02:46:49.231Z,96.50
2018-02-14T02:49:17.068Z,96.40
2018-02-14T02:51:44.901Z,96.30
2018-02-14T02:54:13.585Z,96.20
2018-02-14T02:56:42.160Z,96.30
2018-02-14T02:59:10.750Z,96.40
2018-02-14T03:01:39.461Z,96.30
2018-02-14T03:04:07.255Z,96.30
2018-02-14T03:06:35.083Z,96.20
2018-02-14T03:09:03.008Z,96.20
2018-02-14T03:11:30.827Z,96.20
2018-02-14T03:13:58.652Z,96.50
2018-02-14T03:16:26.521Z,96.60
2018-02-14T03:18:54.380Z,96.40
2018-02-14T03:21:22.164Z,96.40
2018-02-14T03:23:50.796Z,96.40
2018-02-14T03:26:18.624Z,96.40
2018-02-14T03:28:47.175Z,96.40
2018-02-14T03:31:15.053Z,96.40
2018-02-14T03:33:42.833Z,96.50
2018-02-14T03:36:11.395Z,96.60
2018-02-14T03:38:39.353Z,96.50
2018-02-14T03:41:07.129Z,96.60
2018-02-14T03:43:35.000Z,96.90
2018-02-14T03:46:02.930Z,97.00
2018-02-14T03:48:30.717Z,96.90
2018-02-14T03:50:58.608Z,96.80
2018-02-14T03:53:27.269Z,97.20
2018-02-14T03:55:55.090Z,97.00
2018-02-14T03:58:23.041Z,97.00
2018-02-14T04:00:50.921Z,96.90
2018-02-14T04:03:18.712Z,96.60
2018-02-14T04:05:46.528Z,96.50
2018-02-14T04:08:15.161Z,96.40
2018-02-14T04:10:42.998Z,96.30
2018-02-14T04:13:10.848Z,96.20
2018-02-14T04:15:39.480Z,96.00
2018-02-14T04:18:07.285Z,95.90
2018-02-14T04:20:35.097Z,96.10
2018-02-14T04:23:02.998Z,96.20
2018-02-14T04:25:30.829Z,96.30
2018-02-14T04:27:58.763Z,96.20
2018-02-14T04:30:27.964Z,96.30
2018-02-14T04:32:56.557Z,96.10
2018-02-14T04:35:25.206Z,96.10
2018-02-14T04:37:53.172Z,96.10
2018-02-14T04:40:20.975Z,96.00
2018-02-14T04:42:49.572Z,96.50
2018-02-14T04:45:17.528Z,96.50
2018-02-14T04:47:46.131Z,97.00
2018-02-14T04:50:16.218Z,97.00
2018-02-14T04:52:44.822Z,97.30
2018-02-14T04:55:12.634Z,97.20
2018-02-14T04:57:40.401Z,97.30
2018-02-14T05:00:08.305Z,97.40
2018-02-14T05:02:36.922Z,97.50
2018-02-14T05:05:05.132Z,97.50
2018-02-14T05:07:33.068Z,97.70
2018-02-14T05:10:00.969Z,97.90
2018-02-14T05:12:28.833Z,98.00
2018-02-14T05:14:56.828Z,98.00
2018-02-14T05:17:24.670Z,98.10
2018-02-14T05:19:52.639Z,98.40
2018-02-14T05:22:20.928Z,98.00
2018-02-14T05:24:49.703Z,98.40
2018-02-14T05:27:17.736Z,98.30
2018-02-14T05:29:45.745Z,98.40
2018-02-14T05:32:13.546Z,98.30
2018-02-14T05:34:42.180Z,98.10
2018-02-14T05:37:10.044Z,98.10
2018-02-14T05:39:37.874Z,98.10
2018-02-14T05:42:06.400Z,97.90
2018-02-14T05:44:34.365Z,97.90
2018-02-14T05:47:02.217Z,97.90
2018-02-14T05:49:30.036Z,97.90
2018-02-14T05:51:57.946Z,97.80
2018-02-14T05:54:25.950Z,97.90
2018-02-14T05:56:54.292Z,97.70
2018-02-14T05:59:22.186Z,97.90
2018-02-14T06:01:50.097Z,99.90
2018-02-14T06:04:18.748Z,99.90
2018-02-14T06:06:46.864Z,99.90
2018-02-14T06:09:15.502Z,98.10
2018-02-14T06:11:43.486Z,98.10
2018-02-14T06:14:11.543Z,96.40
2018-02-14T06:16:39.720Z,96.10
2018-02-14T06:19:07.843Z,96.20
2018-02-14T06:21:35.863Z,96.00
2018-02-14T06:24:03.729Z,96.00
2018-02-14T06:26:32.022Z,96.00
2018-02-14T06:28:59.974Z,96.00
2018-02-14T06:31:28.116Z,96.10
2018-02-14T06:33:56.164Z,96.10
2018-02-14T06:36:25.007Z,96.10
2018-02-14T06:38:52.881Z,96.10
2018-02-14T06:41:20.747Z,96.00
2018-02-14T06:43:48.656Z,95.90
2018-02-14T06:46:17.312Z,95.90
2018-02-14T06:48:45.082Z,95.80
2018-02-14T06:51:12.992Z,96.20
2018-02-14T06:53:40.848Z,96.80
2018-02-14T06:56:08.609Z,96.80
2018-02-14T06:58:36.540Z,96.90
2018-02-14T07:01:04.336Z,97.00
2018-02-14T07:03:32.255Z,97.10
2018-02-14T07:06:00.076Z,96.90
2018-02-14T07:08:27.864Z,96.90
2018-02-14T07:10:55.767Z,97.10
2018-02-14T07:13:23.729Z,97.20
2018-02-14T07:15:51.605Z,97.20
2018-02-14T07:18:19.508Z,97.20
2018-02-14T07:20:47.393Z,97.20
2018-02-14T07:23:15.292Z,97.20
2018-02-14T07:25:43.163Z,97.10
2018-02-14T07:28:11.109Z,97.10
2018-02-14T07:30:38.970Z,97.10
2018-02-14T07:33:06.736Z,97.00
2018-02-14T07:35:34.601Z,97.10
2018-02-14T07:38:02.377Z,97.10
2018-02-14T07:40:30.172Z,97.00
2018-02-14T07:42:58.111Z,97.00
2018-02-14T07:45:25.992Z,96.80
2018-02-14T07:47:53.867Z,96.70
2018-02-14T07:50:21.787Z,96.50
2018-02-14T07:52:49.633Z,96.50
2018-02-14T07:55:18.273Z,96.00
2018-02-14T07:57:46.146Z,96.00
2018-02-14T08:00:13.961Z,95.70
2018-02-14T08:02:41.800Z,95.60
2018-02-14T08:05:10.527Z,95.60
2018-02-14T08:07:38.382Z,95.30
2018-02-14T08:10:06.222Z,95.20
2018-02-14T08:12:34.145Z,95.30
2018-02-14T08:15:01.987Z,95.20
2018-02-14T08:17:29.767Z,95.10
2018-02-14T08:19:57.624Z,95.00
2018-02-14T08:22:25.455Z,94.80
2018-02-14T08:24:53.984Z,94.80
2018-02-14T08:27:21.855Z,94.50
2018-02-14T08:29:49.709Z,94.30
2018-02-14T08:32:17.516Z,94.00
2018-02-14T08:34:45.482Z,93.60
2018-02-14T08:37:13.327Z,93.40
2018-02-14T08:39:41.167Z,92.90
2018-02-14T08:42:09.176Z,92.40
2018-02-14T08:44:37.784Z,92.10
2018-02-14T08:47:05.690Z,92.10
2018-02-14T08:49:33.576Z,92.00
2018-02-14T08:52:01.475Z,91.90
2018-02-14T08:54:29.391Z,91.80
2018-02-14T08:56:57.272Z,91.60
2018-02-14T08:59:25.128Z,91.10
2018-02-14T09:01:52.992Z,90.70
2018-02-14T09:04:20.824Z,88.90
2018-02-14T09:06:48.669Z,86.70
2018-02-14T09:09:16.508Z,84.30
2018-02-14T09:11:44.419Z,82.00
2018-02-14T09:14:12.259Z,82.90
2018-02-14T09:16:40.107Z,82.00
2018-02-14T09:19:07.944Z,81.70
2018-02-14T09:21:36.565Z,79.80
2018-02-14T09:24:04.391Z,79.70
2018-02-14T09:26:33.228Z,74.70
2018-02-14T09:29:00.978Z,74.70
2018-02-14T09:31:28.720Z,71.40
2018-02-14T09:33:56.607Z,69.50
2018-02-14T09:36:24.452Z,71.10
2018-02-14T09:38:52.299Z,70.70
2018-02-14T09:41:21.023Z,67.30
2018-02-14T09:43:48.880Z,67.20
2018-02-14T09:46:16.741Z,64.00
2018-02-14T09:48:44.624Z,62.00
2018-02-14T09:51:12.443Z,62.90
2018-02-14T09:53:40.237Z,61.60
2018-02-14T09:56:08.059Z,59.50
2018-02-14T09:58:35.939Z,58.30
2018-02-14T10:01:04.507Z,56.60
2018-02-14T10:03:32.456Z,56.30
2018-02-14T10:06:00.241Z,56.40
2018-02-14T10:08:27.997Z,56.10
2018-02-14T10:10:56.252Z,55.10
2018-02-14T10:13:24.108Z,55.40
2018-02-14T10:15:51.904Z,55.20
2018-02-14T10:18:19.841Z,53.30
2018-02-14T10:20:47.694Z,52.20
2018-02-14T10:23:15.476Z,54.10
2018-02-14T10:25:43.343Z,54.30
2018-02-14T10:28:11.112Z,54.20
2018-02-14T10:30:38.973Z,53.80
2018-02-14T10:33:06.856Z,52.80
2018-02-14T10:35:34.599Z,52.50
2018-02-14T10:38:02.336Z,51.30
2018-02-14T10:40:30.919Z,49.40
2018-02-14T10:42:59.468Z,49.90
2018-02-14T10:45:27.324Z,49.90
2018-02-14T10:47:55.260Z,50.10
2018-02-14T10:50:23.116Z,49.40
2018-02-14T10:52:50.940Z,48.70
2018-02-14T10:55:18.870Z,46.70
2018-02-14T10:57:46.706Z,46.50
2018-02-14T11:03:20.016Z,47.00
2018-02-14T11:05:54.164Z,47.50
2018-02-14T11:08:21.944Z,47.50
2018-02-14T11:10:49.929Z,46.90
2018-02-14T11:13:18.169Z,47.00
2018-02-14T11:15:46.156Z,46.50
2018-02-14T11:18:14.335Z,46.40
2018-02-14T11:20:42.222Z,45.70
2018-02-14T11:23:10.274Z,46.00
2018-02-14T11:25:38.160Z,45.10
2018-02-14T11:28:06.123Z,44.40
2018-02-14T11:30:34.364Z,43.90
2018-02-14T11:33:02.212Z,43.70
2018-02-14T11:35:30.147Z,42.90
2018-02-14T11:37:58.102Z,41.90
2018-02-14T11:40:25.968Z,41.40
2018-02-14T11:42:54.229Z,40.20
2018-02-14T11:45:22.124Z,40.00
2018-02-14T11:47:50.412Z,40.50
2018-02-14T11:50:19.592Z,38.60
2018-02-14T11:52:47.561Z,38.50
2018-02-14T11:55:15.430Z,38.00
2018-02-14T11:57:43.391Z,38.50
2018-02-14T12:00:11.420Z,38.20
2018-02-14T12:02:39.637Z,38.60
2018-02-14T12:05:07.604Z,37.30
2018-02-14T12:07:35.495Z,37.10
2018-02-14T12:10:03.440Z,37.40
2018-02-14T12:12:31.422Z,38.00
2018-02-14T12:14:59.547Z,38.10
2018-02-14T12:17:27.562Z,38.80
2018-02-14T12:19:55.521Z,38.00
2018-02-14T12:22:23.672Z,38.00
2018-02-14T12:24:51.920Z,37.40
2018-02-14T12:27:20.099Z,36.90
2018-02-14T12:29:48.242Z,37.00
2018-02-14T12:32:16.000Z,37.60
2018-02-14T12:34:43.909Z,37.60
2018-02-14T12:37:11.701Z,37.30
2018-02-14T12:39:39.525Z,37.30
2018-02-14T12:42:08.203Z,36.70
2018-02-14T12:44:36.739Z,36.30
2018-02-14T12:47:04.576Z,36.30
2018-02-14T12:49:32.396Z,35.40
2018-02-14T12:52:00.176Z,35.50
2018-02-14T12:54:28.829Z,36.90
2018-02-14T12:56:56.693Z,36.90
2018-02-14T12:59:24.597Z,37.20
2018-02-14T13:01:53.212Z,35.90
2018-02-14T13:04:21.116Z,35.90
2018-02-14T13:06:48.960Z,36.00
2018-02-14T13:09:16.796Z,35.80
2018-02-14T13:11:45.488Z,36.30
2018-02-14T13:14:13.255Z,36.30
2018-02-14T13:16:41.016Z,35.60
2018-02-14T13:19:08.909Z,36.10
2018-02-14T13:21:36.754Z,35.30
2018-02-14T13:24:04.551Z,35.40
2018-02-14T13:26:32.568Z,35.30
2018-02-14T13:29:01.150Z,36.90
2018-02-14T13:31:29.825Z,36.90
2018-02-14T13:33:57.738Z,36.90
2018-02-14T13:36:25.572Z,36.50
2018-02-14T13:38:54.244Z,36.40
2018-02-14T13:41:22.196Z,36.40
2018-02-14T13:43:50.125Z,36.00
2018-02-14T13:46:17.964Z,35.60
2018-02-14T13:48:46.558Z,37.10
2018-02-14T13:51:15.173Z,37.20
2018-02-14T13:53:42.947Z,37.10
2018-02-14T13:56:11.093Z,37.30
2018-02-14T13:58:39.125Z,36.00
2018-02-14T14:01:06.896Z,36.60
2018-02-14T14:03:35.624Z,36.00
2018-02-14T14:06:03.364Z,35.90
2018-02-14T14:08:31.994Z,36.30
2018-02-14T14:10:59.890Z,36.30
2018-02-14T14:13:27.749Z,36.60
2018-02-14T14:15:55.585Z,35.10
2018-02-14T14:18:23.489Z,35.70
2018-02-14T14:20:51.300Z,34.60
2018-02-14T14:23:19.166Z,32.00
2018-02-14T14:25:47.104Z,28.90
2018-02-14T14:28:15.714Z,26.00
2018-02-14T14:30:43.621Z,25.90
2018-02-14T14:33:11.555Z,25.30
2018-02-14T14:35:39.403Z,24.20
2018-02-14T14:38:08.017Z,22.30
2018-02-14T14:40:36.012Z,22.30
2018-02-14T14:43:04.185Z,22.00
2018-02-14T14:45:32.053Z,22.10
2018-02-14T14:48:00.024Z,22.40
2018-02-14T14:50:28.093Z,22.50
2018-02-14T14:52:55.961Z,23.60
2018-02-14T14:55:23.986Z,24.40
2018-02-14T14:57:52.105Z,24.60
2018-02-14T15:00:20.012Z,24.60
2018-02-14T15:02:48.962Z,24.40
2018-02-14T15:05:16.933Z,24.40
2018-02-14T15:07:44.799Z,23.50
2018-02-14T15:10:12.689Z,23.00
2018-02-14T15:12:41.361Z,26.50
2018-02-14T15:15:09.207Z,25.90
2018-02-14T15:17:37.149Z,27.80
2018-02-14T15:20:05.056Z,29.60
2018-02-14T15:22:32.920Z,32.50
2018-02-14T15:25:00.912Z,33.50
2018-02-14T15:27:28.816Z,34.60
2018-02-14T15:29:56.683Z,35.80
2018-02-14T15:32:24.532Z,35.90
2018-02-14T15:34:53.281Z,38.50
2018-02-14T15:37:21.347Z,38.50
2018-02-14T15:39:49.730Z,39.10
2018-02-14T15:42:17.880Z,39.80
2018-02-14T15:44:45.770Z,40.20
2018-02-14T15:47:13.741Z,41.10
2018-02-14T15:49:41.571Z,41.60
2018-02-14T15:52:09.414Z,42.00
2018-02-14T15:54:38.159Z,42.30
2018-02-14T15:57:06.028Z,42.20
2018-02-14T15:59:34.201Z,43.00
2018-02-14T16:02:02.170Z,43.90
2018-02-14T16:04:29.934Z,44.70
2018-02-14T16:06:58.106Z,45.30
2018-02-14T16:09:26.114Z,46.20
2018-02-14T16:11:55.074Z,47.90
2018-02-14T16:14:23.018Z,47.90
2018-02-14T16:16:50.928Z,48.60
2018-02-14T16:19:18.845Z,49.10
2018-02-14T16:21:46.738Z,49.70
2018-02-14T16:24:14.611Z,50.30
2018-02-14T16:26:42.576Z,50.90
2018-02-14T16:29:10.647Z,51.10
2018-02-14T16:31:38.720Z,51.30
2018-02-14T16:34:06.672Z,51.70
2018-02-14T16:36:34.699Z,52.20
2018-02-14T16:39:03.640Z,53.60
2018-02-14T16:41:31.445Z,53.60
2018-02-14T16:44:00.104Z,53.80
2018-02-14T16:46:28.044Z,53.70
2018-02-14T16:48:55.810Z,54.20
2018-02-14T16:51:23.664Z,54.70
2018-02-14T16:53:51.584Z,54.60
2018-02-14T16:56:19.365Z,54.50
2018-02-14T16:58:47.979Z,53.70
2018-02-14T17:01:15.879Z,53.60
2018-02-14T17:03:43.752Z,54.00
2018-02-14T17:06:11.562Z,55.00
2018-02-14T17:08:40.233Z,55.80
2018-02-14T17:11:08.747Z,56.40
2018-02-14T17:13:36.607Z,56.30
2018-02-14T17:16:04.445Z,56.50
2018-02-14T17:18:32.334Z,56.60
2018-02-14T17:21:00.964Z,56.90
2018-02-14T17:23:28.864Z,56.90
2018-02-14T17:25:57.448Z,58.40
2018-02-14T17:28:25.197Z,58.30
2018-02-14T17:30:53.117Z,59.40
2018-02-14T17:33:20.948Z,58.50
2018-02-14T17:35:49.518Z,58.50
2018-02-14T17:38:17.490Z,58.20
2018-02-14T17:40:46.029Z,59.00
2018-02-14T17:43:13.845Z,58.80
2018-02-14T17:45:41.693Z,59.60
2018-02-14T17:48:10.342Z,60.20
2018-02-14T17:50:38.250Z,60.50
2018-02-14T17:53:06.414Z,60.80
2018-02-14T17:55:34.718Z,60.00
2018-02-14T17:58:03.378Z,60.40
2018-02-14T18:00:31.370Z,60.20
2018-02-14T18:03:00.211Z,61.40
2018-02-14T18:05:29.404Z,61.30
2018-02-14T18:07:57.302Z,62.20
2018-02-14T18:10:25.120Z,62.40
2018-02-14T18:12:53.041Z,63.60
2018-02-14T18:15:21.104Z,62.50
2018-02-14T18:17:49.041Z,63.90
2018-02-14T18:20:16.944Z,66.80
2018-02-14T18:22:44.989Z,68.30
2018-02-14T18:25:12.932Z,69.40
2018-02-14T18:27:40.840Z,72.20
2018-02-14T18:30:08.767Z,73.60
2018-02-14T18:32:36.641Z,74.60
2018-02-14T18:35:04.777Z,74.00
2018-02-14T18:37:32.681Z,74.70
2018-02-14T18:40:00.674Z,74.10
2018-02-14T18:42:28.572Z,73.30
2018-02-14T18:44:56.530Z,73.90
2018-02-14T18:47:24.603Z,75.00
2018-02-14T18:49:52.899Z,77.30
2018-02-14T18:52:20.849Z,78.80
2018-02-14T18:54:49.126Z,79.90
2018-02-14T18:57:17.256Z,80.60
2018-02-14T18:59:45.196Z,79.20
2018-02-14T19:02:14.056Z,74.30
2018-02-14T19:04:42.624Z,73.30
2018-02-14T19:07:10.506Z,73.30
2018-02-14T19:09:39.105Z,75.20
2018-02-14T19:12:06.888Z,75.00
2018-02-14T19:14:35.629Z,77.50
2018-02-14T19:17:03.485Z,77.50
2018-02-14T19:19:31.579Z,77.50
2018-02-14T19:21:59.454Z,78.90
2018-02-14T19:24:27.236Z,80.70
2018-02-14T19:26:55.093Z,81.80
2018-02-14T19:29:23.059Z,83.40
2018-02-14T19:31:50.949Z,84.70
2018-02-14T19:34:19.604Z,85.20
2018-02-14T19:36:47.436Z,85.20
2018-02-14T19:39:15.291Z,85.60
2018-02-14T19:41:43.120Z,85.10
2018-02-14T19:44:11.057Z,85.20
2018-02-14T19:46:38.906Z,84.80
2018-02-14T19:49:06.709Z,83.00
2018-02-14T19:51:34.545Z,81.50
2018-02-14T19:54:02.328Z,80.40
2018-02-14T19:56:30.096Z,81.20
2018-02-14T19:58:58.045Z,81.40
2018-02-14T20:01:26.139Z,81.50
2018-02-14T20:03:54.311Z,83.20
2018-02-14T20:06:22.460Z,85.30
2018-02-14T20:08:50.470Z,86.70
2018-02-14T20:11:18.292Z,85.80
2018-02-14T20:13:46.303Z,85.70
2018-02-14T20:16:14.107Z,86.70
2018-02-14T20:18:42.125Z,86.40
2018-02-14T20:21:10.000Z,86.00
2018-02-14T20:23:38.638Z,88.60
2018-02-14T20:26:06.414Z,88.50
2018-02-14T20:28:34.341Z,88.50
2018-02-14T20:31:02.978Z,88.10
2018-02-14T20:33:30.756Z,87.90
2018-02-14T20:35:58.580Z,87.70
2018-02-14T20:38:26.383Z,88.10
2018-02-14T20:40:54.164Z,88.60
2018-02-14T20:43:23.218Z,86.20
2018-02-14T20:45:51.346Z,86.30
2018-02-14T20:48:19.903Z,87.70
2018-02-14T20:50:47.819Z,87.70
2018-02-14T20:53:16.667Z,89.50
2018-02-14T20:55:44.709Z,89.40
2018-02-14T20:58:13.082Z,90.00
2018-02-14T21:00:41.065Z,89.80
2018-02-14T21:03:09.061Z,87.70
2018-02-14T21:05:37.305Z,85.70
2018-02-14T21:08:05.196Z,85.90
2018-02-14T21:10:33.365Z,85.50
2018-02-14T21:13:01.337Z,87.30
2018-02-14T21:15:29.307Z,90.10
2018-02-14T21:17:57.346Z,90.90
2018-02-14T21:20:25.281Z,91.80
2018-02-14T21:22:54.237Z,92.80
2018-02-14T21:25:22.087Z,92.80
2018-02-14T21:27:50.033Z,93.00
2018-02-14T21:30:17.927Z,93.40
2018-02-14T21:32:45.715Z,93.30
2018-02-14T21:35:13.652Z,93.40
2018-02-14T21:37:41.408Z,93.40
2018-02-14T21:40:09.198Z,93.30
2018-02-14T21:42:37.099Z,93.30
2018-02-14T21:45:05.634Z,93.20
2018-02-14T21:47:33.507Z,93.20
2018-02-14T21:50:01.364Z,93.20
2018-02-14T21:52:29.139Z,93.00
2018-02-14T21:54:57.008Z,91.50
2018-02-14T21:57:24.944Z,90.60
2018-02-14T21:59:52.767Z,90.10
2018-02-14T22:02:20.652Z,90.40
2018-02-14T22:04:49.300Z,91.60
2018-02-14T22:07:17.224Z,91.50
2018-02-14T22:09:45.042Z,91.90
2018-02-14T22:12:12.971Z,92.20
2018-02-14T22:14:40.877Z,91.80
2018-02-14T22:17:08.674Z,91.50
2018-02-14T22:19:37.372Z,92.20
2018-02-14T22:22:05.908Z,92.60
2018-02-14T22:24:33.792Z,92.60
2018-02-14T22:27:01.703Z,92.80
2018-02-14T22:29:29.498Z,93.00
2018-02-14T22:31:57.347Z,93.30
2018-02-14T22:34:25.271Z,93.40
2018-02-14T22:36:53.799Z,93.90
2018-02-14T22:39:21.643Z,93.60
2018-02-14T22:41:49.613Z,93.60
2018-02-14T22:44:17.427Z,93.50
2018-02-14T22:46:45.288Z,93.40
2018-02-14T22:49:14.015Z,92.70
2018-02-14T22:51:42.636Z,92.00
2018-02-14T22:54:10.488Z,92.00
2018-02-14T22:56:38.386Z,91.90
2018-02-14T22:59:06.252Z,91.80
2018-02-14T23:01:34.063Z,92.00
2018-02-14T23:04:02.746Z,91.60
2018-02-14T23:06:31.398Z,92.10
2018-02-14T23:08:59.169Z,91.90
2018-02-14T23:11:26.995Z,92.60
2018-02-14T23:13:54.834Z,92.90
2018-02-14T23:16:23.435Z,93.10
2018-02-14T23:18:51.463Z,93.10
2018-02-14T23:21:19.315Z,93.20
2018-02-14T23:23:47.111Z,93.30
2018-02-14T23:26:15.855Z,94.10
2018-02-14T23:28:43.702Z,93.70
2018-02-14T23:31:11.607Z,93.90
2018-02-14T23:33:39.559Z,93.90
2018-02-14T23:36:07.362Z,93.90
2018-02-14T23:38:35.275Z,93.10
2018-02-14T23:41:03.125Z,91.80
2018-02-14T23:43:30.895Z,90.70
2018-02-14T23:45:58.743Z,90.90
2018-02-14T23:48:27.354Z,92.60
2018-02-14T23:50:55.257Z,92.60
2018-02-14T23:53:23.916Z,93.50
2018-02-14T23:55:51.808Z,93.50
2018-02-14T23:58:19.677Z,93.80
